Flight Track Log - Related Links

Times and Time Zones

All times are in EDT time to prevent confusion due to time zone crossing. See the ASQ4283 flight status page for this flight to view local times or setup timezone preferences in your user account.

Time Position Orientation Groundspeed Altitude Reporting Facility
EDT Latitude Longitude Course Direction KTS MPH feet Rate Location/Type
Fri 05:50:27 AM 42.8894 -85.4686 118° Southeast 185 213 2,800  Level Chicago Center
Fri 05:51:27 AM 42.8797 -85.3850 99° East 227 261 5,300 2,628 Climbing Chicago Center
Fri 05:52:28 AM 42.8556 -85.2872 109° East 262 302 8,100 2,678 Climbing Chicago Center
Fri 05:53:00 AM 42.8072 -84.9977 107° East  Level Estimated
Fri 05:53:28 AM 42.8292 -85.1861 110° East 278 320 10,700  Level Chicago Center
Fri 05:54:00 AM 42.7884 -84.8667 109° East  Level Estimated
Fri 05:54:29 AM 42.8003 -85.0678 108° East 319 367 11,700  Level Chicago Center
Fri 05:55:00 AM 42.7420 -84.7491 118° Southeast  Level FlightAware Approximate
Fri 05:55:29 AM 42.7656 -84.9375 110° East 357 411 13,300  Level Chicago Center
Fri 05:56:30 AM 42.7306 -84.8036 110° East 372 428 14,800 1,537 Climbing Chicago Center
Fri 05:57:30 AM 42.6944 -84.6656 110° East 383 441 16,400 1,550 Climbing Chicago Center
Fri 05:58:30 AM 42.6578 -84.5253 110° East 391 450 17,900 1,388 Climbing Chicago Center
Fri 05:59:31 AM 42.6219 -84.3856 109° East 393 452 19,200 1,388 Climbing Chicago Center
Fri 06:00:31 AM 42.5844 -84.2433 110° East 397 457 20,700 1,448 Climbing Chicago Center
Fri 06:01:27 AM 42.5439 -84.1061 112° Southeast 399 459 22,000 1,397 Climbing Cleveland Center
Fri 06:02:27 AM 42.5044 -83.9603 110° East 399 459 23,400 1,400 Climbing Cleveland Center
Fri 06:03:27 AM 42.4650 -83.8117 110° East 404 465 24,800 1,350 Climbing Cleveland Center
Fri 06:04:27 AM 42.4253 -83.6633 110° East 410 472 26,100 1,350 Climbing Cleveland Center
Fri 06:05:27 AM 42.3836 -83.4956 109° East 415 478 27,500 1,300 Climbing Cleveland Center
Fri 06:06:27 AM 42.3561 -83.3425 104° East 415 478 28,700 1,150 Climbing Cleveland Center
Fri 06:07:27 AM 42.3261 -83.2008 106° East 423 487 29,800 1,050 Climbing Cleveland Center
Fri 06:08:27 AM 42.2922 -83.0450 106° East 429 494 30,800 1,050 Climbing Cleveland Center
Fri 06:09:27 AM 42.2581 -82.8808 106° East 434 499 31,900 1,050 Climbing Cleveland Center
Fri 06:10:27 AM 42.2403 -82.7175 98° East 439 505 32,900 550 Climbing Cleveland Center
Fri 06:11:27 AM 42.2244 -82.5514 97° East 444 511 33,000 50 Climbing Cleveland Center
Fri 06:12:27 AM 42.2106 -82.3772 96° East 450 518 33,000  Level Cleveland Center
Fri 06:13:27 AM 42.1944 -82.2114 97° East 450 518 33,000  Level Cleveland Center
Fri 06:14:27 AM 42.1717 -82.0456 100° East 450 518 33,000  Level Cleveland Center
Fri 06:15:27 AM 42.1486 -81.8769 100° East 455 524 33,000  Level Cleveland Center
Fri 06:16:27 AM 42.1253 -81.7058 100° East 455 524 33,000  Level Cleveland Center
Fri 06:17:27 AM 42.0997 -81.5403 102° East 455 524 33,000  Level Cleveland Center
Fri 06:18:27 AM 42.0719 -81.3553 101° East 455 524 33,000  Level Cleveland Center
Fri 06:19:27 AM 42.0458 -81.1869 102° East 455 524 33,000  Level Cleveland Center
Fri 06:20:27 AM 42.0217 -81.0164 101° East 455 524 33,000  Level Cleveland Center
Fri 06:21:27 AM 41.9950 -80.8458 102° East 455 524 33,000  Level Cleveland Center
Fri 06:22:27 AM 41.9683 -80.6753 102° East 460 529 33,000  Level Cleveland Center
Fri 06:23:27 AM 41.9411 -80.5050 102° East 465 535 33,000  Level Cleveland Center
Fri 06:24:27 AM 41.9139 -80.3319 102° East 474 545 33,000  Level Cleveland Center
Fri 06:25:27 AM 41.8906 -80.1814 102° East 469 540 33,000  Level Cleveland Center
Fri 06:26:27 AM 41.8606 -80.0144 104° East 464 534 33,000  Level Cleveland Center
Fri 06:27:27 AM 41.8367 -79.8475 101° East 464 534 33,000  Level Cleveland Center
Fri 06:28:27 AM 41.8106 -79.6833 102° East 459 528 33,000  Level Cleveland Center
Fri 06:29:27 AM 41.7736 -79.5194 107° East 452 520 33,000  Level Cleveland Center
Fri 06:30:27 AM 41.6911 -79.3819 129° Southeast 452 520 33,000  Level Cleveland Center
Fri 06:31:27 AM 41.6103 -79.2417 128° Southeast 464 534 33,000  Level Cleveland Center
Fri 06:32:27 AM 41.5872 -79.0728 100° East 458 527 33,000  Level Cleveland Center
Fri 06:33:27 AM 41.5767 -78.9011 95° East 452 520 33,000  Level Cleveland Center
Fri 06:34:27 AM 41.5656 -78.7319 95° East 452 520 33,000  Level Cleveland Center
Fri 06:35:27 AM 41.5544 -78.5603 95° East 458 527 33,000  Level Cleveland Center
Fri 06:36:27 AM 41.5428 -78.3858 95° East 463 533 33,000 -300 Level Cleveland Center
Fri 06:37:27 AM 41.5311 -78.2114 95° East 463 533 32,400 -800 Descending Cleveland Center
Fri 06:38:57 AM 41.5103 -77.9575 96° East 463 533 31,000 -560 Descending New York Center
Fri 06:39:57 AM 41.4869 -77.7861 100° East 468 539 31,000  Level New York Center
Fri 06:40:57 AM 41.4614 -77.6172 101° East 468 539 31,000  Level New York Center
Fri 06:41:57 AM 41.4344 -77.4317 101° East 468 539 31,000 -250 Level New York Center
Fri 06:42:57 AM 41.4117 -77.2828 101° East 462 532 30,500 -1,000 Descending New York Center
Fri 06:43:57 AM 41.3892 -77.1175 100° East 456 525 29,000 -1,500 Descending New York Center
Fri 06:44:57 AM 41.3628 -76.9492 102° East 456 525 27,500 -1,450 Descending New York Center
Fri 06:45:57 AM 41.3361 -76.7781 102° East 461 531 26,100 -1,100 Descending New York Center
Fri 06:46:57 AM 41.2958 -76.6225 109° East 455 524 25,300 -1,350 Descending New York Center
Fri 06:47:57 AM 41.2533 -76.4725 111° Southeast 445 512 23,400 -1,950 Descending New York Center
Fri 06:48:57 AM 41.2144 -76.3231 109° East 434 499 21,400 -1,950 Descending New York Center
Fri 06:49:57 AM 41.1717 -76.1708 110° East 434 499 19,500 -1,700 Descending New York Center
Fri 06:50:57 AM 41.1328 -76.0161 108° East 417 480 18,000 -900 Descending New York Center
Fri 06:51:57 AM 41.0950 -75.8756 110° East 407 468 17,700 -800 Descending New York Center
Fri 06:52:57 AM 41.0628 -75.7547 109° East 393 452 16,400 -1,350 Descending New York Center
Fri 06:53:57 AM 41.0264 -75.6256 110° East 383 441 15,000 -1,450 Descending New York Center
Fri 06:54:57 AM 40.9919 -75.5022 110° East 377 434 13,500 -1,550 Descending New York Center
Fri 06:55:57 AM 40.9514 -75.3647 111° Southeast 366 421 11,900 -1,400 Descending New York Center
Fri 06:56:57 AM 40.9183 -75.2472 110° East 351 404 10,700 -1,200 Descending New York Center
Fri 06:57:57 AM 40.8928 -75.1519 110° East 317 365 9,500 -1,200 Descending New York Center
Fri 06:58:57 AM 40.8653 -75.0517 110° East 302 348 8,300 -1,150 Descending New York Center
Fri 06:59:57 AM 40.8358 -74.9428 110° East 291 335 7,200 -650 Descending New York Center
Fri 07:00:57 AM 40.8453 -74.8500 82° East 284 327 7,000 -100 Descending New York Center
Fri 07:01:57 AM 40.8617 -74.7358 79° East 278 320 7,000  Level New York Center
Fri 07:02:57 AM 40.8417 -74.6522 108° East 255 293 7,000 -313 Level New York Center
Fri 07:03:52 AM 40.7833 -74.5667 132° Southeast 291 335 6,400 -550 Descending New York TRACON
Fri 07:04:46 AM 40.7167 -74.5333 159° South 284 327 6,000 -684 Descending New York TRACON
Fri 07:05:46 AM 40.6500 -74.5167 169° South 271 312 5,100 -650 Descending New York TRACON
Fri 07:06:46 AM 40.5833 -74.4833 159° South 242 278 4,700 -579 Descending New York TRACON
Fri 07:07:40 AM 40.5333 -74.4667 166° South 237 273 4,000 -389 Descending New York TRACON
Fri 07:08:34 AM 40.5000 -74.4000 123° Southeast 224 258 4,000 -158 Level New York TRACON
Fri 07:09:34 AM 40.5000 -74.3167 90° East 221 254 3,700 -263 Descending New York TRACON
Fri 07:10:28 AM 40.5333 -74.2667 49° Northeast 180 207 3,500 -526 Descending New York TRACON
Fri 07:11:28 AM 40.5667 -74.2500 21° North 171 197 2,700 -900 Descending New York TRACON
Fri 07:12:28 AM 40.6167 -74.2167 27° Northeast 146 168 1,700 -895 Descending New York TRACON
Fri 07:13:22 AM 40.6333 -74.2000 37° Northeast 113 130 1,000 -684 Descending New York TRACON
Fri 07:14:22 AM 40.6667 -74.1833 21° North 110 127 400 -600 Descending New York TRACON

Login

Don't have an account? Register now (free) for customized features, flight alerts, and more!